Howertons, Virginia
Current Conditions -  °F | °C
As of 2:15 PM on Saturday 20 Dec 2014 (Local Time) from KXSA Reporting Station
Broken Clouds Broken Clouds  
Wind Chill: 37°   Ceiling: 9000
Heat Index: 37°   Visibility: 10mi
Dew Point: 20°   Wind: 0mph
Humidity: 52%   Direction: NA
Pressure: 30.27"   Gusts: NA
Location:  37.8346°N, 76.8473°W
Report Text: KXSA 201915Z AUTO 00000KT 10SM BKN090 03/M06 A3027 RMK AO2 T00261064
Loading
Personal Weather Stations






























Interactive Weather Map New forecast layout! Learn more

10-Day Weather Forecast

Advertisements
Track Severe Weather on mobile